Time;durP1;ratioP1;P1;durP2;ratioP2;P2;SDS_P1;SDS_P2;PMS_P1;PMS_P2;Temp;Humidity;BMP_temperature;BMP_pressure;BME280_temperature;BME280_humidity;BME280_pressure;Samples;Min_cycle;Max_cycle;Signal;HPM_P1;HPM_P2
2022/06/05 00:01:21;;;;;;;8.75;7.95;;;;;;;21.28;66.91;95099.75;5076184;28;20296;-73
2022/06/05 00:03:54;;;;;;;8.85;7.95;;;;;;;21.24;67.06;95104.63;5076528;28;20193;-73
2022/06/05 00:06:26;;;;;;;8.27;7.30;;;;;;;21.20;66.89;95104.66;5076964;28;20224;-73
2022/06/05 00:09:14;;;;;;;9.52;7.78;;;;;;;21.19;66.88;95096.69;5075980;28;20243;-73
2022/06/05 00:11:47;;;;;;;8.57;7.78;;;;;;;21.17;67.09;95102.72;5076000;28;20231;-74
2022/06/05 00:14:14;;;;;;;8.45;7.65;;;;;;;21.18;67.32;95097.91;5076934;28;20208;-74
2022/06/05 00:16:42;;;;;;;8.75;7.75;;;;;;;21.18;67.55;95098.69;5076094;28;20193;-74
2022/06/05 00:19:08;;;;;;;9.32;8.25;;;;;;;21.18;67.39;95097.91;5075199;28;20308;-74
2022/06/05 00:21:35;;;;;;;10.57;8.18;;;;;;;21.16;67.23;95095.50;5075577;28;20614;-74
2022/06/05 00:24:04;;;;;;;8.55;7.75;;;;;;;21.12;67.36;95098.34;5075688;28;20225;-74
2022/06/05 00:26:38;;;;;;;9.27;7.43;;;;;;;21.10;67.50;95100.81;5076396;28;20189;-74
2022/06/05 00:29:16;;;;;;;9.02;8.23;;;;;;;21.07;67.57;95095.25;5075671;28;20299;-74
2022/06/05 00:31:49;;;;;;;8.45;7.55;;;;;;;21.11;68.20;95107.19;5075872;28;20232;-74
2022/06/05 00:34:17;;;;;;;8.23;6.80;;;;;;;21.10;67.98;95108.44;5076134;28;20181;-74
2022/06/05 00:36:53;;;;;;;8.45;7.65;;;;;;;21.12;67.96;95111.59;5076412;28;20181;-74
2022/06/05 00:39:29;;;;;;;8.38;7.38;;;;;;;21.14;67.47;95109.97;5075402;28;20266;-74
2022/06/05 00:41:59;;;;;;;8.45;7.65;;;;;;;21.18;67.44;95115.53;5076466;28;20271;-74
2022/06/05 00:44:30;;;;;;;8.35;7.20;;;;;;;21.10;67.03;95117.63;5075120;28;20257;-74
2022/06/05 00:46:58;;;;;;;10.25;7.45;;;;;;;21.00;67.10;95112.94;5076259;28;20181;-72
2022/06/05 00:49:28;;;;;;;7.80;6.97;;;;;;;20.97;67.42;95102.56;5076195;28;20188;-72
2022/06/05 00:51:54;;;;;;;7.57;6.82;;;;;;;20.98;67.47;95111.78;5076059;28;20177;-74
2022/06/05 00:54:23;;;;;;;9.02;6.75;;;;;;;20.97;67.38;95110.19;5076160;28;20190;-73
2022/06/05 00:56:49;;;;;;;7.65;6.93;;;;;;;20.98;67.52;95106.16;5074697;28;20651;-73
2022/06/05 00:59:18;;;;;;;7.88;7.07;;;;;;;20.97;67.51;95104.56;5075832;28;20213;-74
2022/06/05 01:01:45;;;;;;;8.85;6.80;;;;;;;20.92;67.65;95100.25;5075427;28;20218;-73
2022/06/05 01:04:12;;;;;;;8.23;7.43;;;;;;;20.86;67.51;95094.28;5075009;28;20197;-73
2022/06/05 01:06:39;;;;;;;7.47;6.78;;;;;;;20.76;67.20;95098.00;5074877;28;20670;-73
2022/06/05 01:09:06;;;;;;;8.73;7.30;;;;;;;20.66;67.22;95096.94;5074960;28;20292;-72
2022/06/05 01:11:41;;;;;;;6.50;5.93;;;;;;;20.59;67.44;95107.44;5075604;28;20216;-73
2022/06/05 01:14:14;;;;;;;7.47;6.82;;;;;;;20.58;67.45;95100.22;5075644;28;20193;-73
2022/06/05 01:16:46;;;;;;;7.00;6.35;;;;;;;20.55;67.37;95104.66;5075693;28;20283;-72
2022/06/05 01:19:23;;;;;;;7.38;6.68;;;;;;;20.51;67.72;95103.88;5075471;28;20185;-72
2022/06/05 01:22:06;;;;;;;7.20;6.50;;;;;;;20.52;68.14;95099.91;5075620;28;20185;-71
2022/06/05 01:24:47;;;;;;;7.60;6.82;;;;;;;20.56;67.94;95097.84;5075100;28;20232;-71
2022/06/05 01:27:17;;;;;;;7.32;6.47;;;;;;;20.57;67.90;95101.44;5075446;28;20181;-72
2022/06/05 01:29:47;;;;;;;8.60;6.88;;;;;;;20.52;67.79;95097.09;5075052;28;20201;-72
2022/06/05 01:32:19;;;;;;;7.53;6.72;;;;;;;20.49;67.47;95103.50;5074709;28;20210;-72
2022/06/05 01:34:48;;;;;;;9.65;7.05;;;;;;;20.51;67.68;95097.50;5074762;28;20205;-71
2022/06/05 01:37:17;;;;;;;7.85;7.07;;;;;;;20.51;67.37;95098.28;5075270;28;20197;-71
2022/06/05 01:39:48;;;;;;;7.82;7.00;;;;;;;20.53;67.60;95104.28;5075217;28;20224;-71
2022/06/05 01:42:21;;;;;;;7.78;7.10;;;;;;;20.54;68.21;95100.25;5075458;28;20185;-71
2022/06/05 01:44:51;;;;;;;10.23;7.20;;;;;;;20.58;67.99;95103.03;5075472;28;20213;-73
2022/06/05 01:47:20;;;;;;;7.75;6.95;;;;;;;20.61;68.11;95110.59;5073968;28;20219;-73
2022/06/05 01:49:50;;;;;;;8.35;6.78;;;;;;;20.62;68.08;95098.97;5075189;28;20193;-73
2022/06/05 01:52:21;;;;;;;7.55;6.85;;;;;;;20.66;68.01;95096.94;5073962;28;20205;-73
2022/06/05 01:54:50;;;;;;;8.00;7.20;;;;;;;20.62;68.03;95100.97;5075251;28;20189;-74
2022/06/05 01:57:20;;;;;;;8.18;7.38;;;;;;;20.59;68.21;95096.22;5074376;28;20585;-74
2022/06/05 01:59:49;;;;;;;7.63;6.88;;;;;;;20.58;68.02;95089.81;5075095;28;20204;-74
2022/06/05 02:02:20;;;;;;;8.90;6.90;;;;;;;20.54;68.09;95094.66;5074521;28;20197;-73
2022/06/05 02:04:49;;;;;;;7.47;6.68;;;;;;;20.52;68.23;95093.50;5075107;28;20254;-73
2022/06/05 02:07:18;;;;;;;8.85;6.80;;;;;;;20.50;68.24;95085.50;5074951;28;20189;-74
2022/06/05 02:09:48;;;;;;;10.65;7.03;;;;;;;20.53;68.25;95089.47;5075031;28;20181;-72
2022/06/05 02:12:15;;;;;;;7.47;6.78;;;;;;;20.55;68.36;95082.25;5074173;28;20569;-73
2022/06/05 02:14:43;;;;;;;7.20;6.55;;;;;;;20.58;68.27;95083.41;5075000;28;20239;-74
2022/06/05 02:17:11;;;;;;;7.70;6.97;;;;;;;20.55;68.02;95082.25;5075107;28;20181;-74
2022/06/05 02:19:38;;;;;;;7.95;6.78;;;;;;;20.48;68.28;95087.91;5073991;28;20667;-73
2022/06/05 02:22:09;;;;;;;7.70;6.90;;;;;;;20.42;68.13;95087.56;5074637;28;20205;-73
2022/06/05 02:24:35;;;;;;;9.93;7.18;;;;;;;20.37;68.58;95087.19;5073856;28;20315;-73
2022/06/05 02:27:04;;;;;;;9.55;7.13;;;;;;;20.36;68.65;95091.22;5074142;28;20189;-73
2022/06/05 02:29:32;;;;;;;8.30;7.10;;;;;;;20.33;68.77;95098.44;5073946;28;20251;-73
2022/06/05 02:32:18;;;;;;;9.05;6.82;;;;;;;20.28;68.60;95098.09;5073930;28;20201;-71
2022/06/05 02:34:51;;;;;;;10.35;7.35;;;;;;;20.26;68.87;95084.53;5073876;28;20181;-72
2022/06/05 02:37:29;;;;;;;7.97;7.18;;;;;;;20.24;68.69;95091.75;5074659;28;20279;-73
2022/06/05 02:40:03;;;;;;;8.93;7.13;;;;;;;20.23;68.85;95081.78;5073422;28;20250;-72
2022/06/05 02:42:33;;;;;;;9.25;7.45;;;;;;;20.27;68.80;95079.72;5075162;28;20295;-73
2022/06/05 02:45:10;;;;;;;12.98;7.78;;;;;;;20.26;68.89;95078.94;5078450;28;20575;-73
2022/06/05 02:47:43;;;;;;;9.73;7.78;;;;;;;20.29;68.81;95072.47;5078423;28;20185;-73
2022/06/05 02:50:12;;;;;;;11.30;7.78;;;;;;;20.32;68.81;95076.47;5077797;28;20211;-74
2022/06/05 02:52:39;;;;;;;8.57;7.68;;;;;;;20.32;68.84;95079.25;5078491;28;20193;-73
2022/06/05 02:55:08;;;;;;;11.05;7.75;;;;;;;20.29;68.77;95080.09;5078139;28;20555;-73
2022/06/05 02:57:36;;;;;;;10.32;7.47;;;;;;;20.23;69.11;95073.38;5078238;28;20185;-73
2022/06/05 03:00:05;;;;;;;10.07;7.68;;;;;;;20.16;69.18;95074.22;5077907;28;20201;-73
2022/06/05 03:05:18;;;;;;;9.43;7.93;;;;;;;20.07;69.37;95068.31;5077457;28;20189;-72
2022/06/05 03:07:45;;;;;;;13.35;7.95;;;;;;;20.06;69.62;95070.31;5077720;28;20193;-73
2022/06/05 03:10:13;;;;;;;10.65;8.02;;;;;;;20.07;69.64;95071.88;5077958;28;20173;-72
2022/06/05 03:12:39;;;;;;;8.52;7.63;;;;;;;20.07;69.58;95077.50;5077703;28;20204;-73
2022/06/05 03:15:08;;;;;;;10.70;7.97;;;;;;;20.04;69.45;95075.50;5077687;28;20219;-73
2022/06/05 03:17:34;;;;;;;10.35;7.78;;;;;;;20.02;69.75;95082.75;5077947;28;20310;-73
2022/06/05 03:20:01;;;;;;;11.13;7.85;;;;;;;19.96;69.49;95083.19;5077369;28;20235;-73
2022/06/05 03:22:29;;;;;;;8.15;7.18;;;;;;;19.94;69.71;95094.00;5077826;28;20273;-73
2022/06/05 03:24:56;;;;;;;8.68;7.47;;;;;;;19.96;70.00;95082.41;5076893;28;20205;-73
2022/06/05 03:27:23;;;;;;;7.80;7.03;;;;;;;19.97;69.55;95089.56;5077672;28;20235;-72
2022/06/05 03:29:51;;;;;;;8.30;7.38;;;;;;;19.98;69.52;95093.19;5077332;28;20201;-72
2022/06/05 03:32:18;;;;;;;8.45;7.53;;;;;;;20.02;69.27;95091.16;5077377;28;20668;-72
2022/06/05 03:34:44;;;;;;;8.43;7.72;;;;;;;20.03;69.33;95089.94;5076631;28;20204;-72
2022/06/05 03:37:11;;;;;;;8.77;7.38;;;;;;;20.05;69.37;95101.53;5077255;28;20197;-73
2022/06/05 03:39:39;;;;;;;8.10;7.30;;;;;;;20.03;70.02;95099.13;5076603;28;20197;-73
2022/06/05 03:42:07;;;;;;;9.73;7.38;;;;;;;20.00;70.12;95104.75;5076602;28;20213;-72
2022/06/05 03:44:37;;;;;;;8.93;7.28;;;;;;;20.02;70.19;95108.75;5076862;28;20193;-72
2022/06/05 03:47:04;;;;;;;9.82;7.15;;;;;;;19.96;69.79;95096.38;5076901;28;20240;-73
2022/06/05 03:49:32;;;;;;;9.65;7.07;;;;;;;19.91;70.02;95106.03;5077295;28;20273;-72
2022/06/05 03:51:59;;;;;;;10.48;7.32;;;;;;;19.91;70.10;95105.25;5076523;28;20205;-72
2022/06/05 03:54:26;;;;;;;9.75;7.80;;;;;;;19.93;69.80;95112.03;5076227;28;20204;-72
2022/06/05 03:56:54;;;;;;;10.07;7.68;;;;;;;19.90;70.38;95112.84;5077263;28;20185;-72
2022/06/05 03:59:20;;;;;;;10.73;7.57;;;;;;;19.92;70.39;95118.81;5076230;28;20193;-71
2022/06/05 04:01:48;;;;;;;8.43;7.57;;;;;;;19.96;70.39;95107.59;5076785;28;20726;-72
2022/06/05 04:04:14;;;;;;;8.18;7.43;;;;;;;19.96;70.63;95121.59;5076201;28;20288;-72
2022/06/05 04:06:41;;;;;;;10.20;9.23;;;;;;;19.95;70.58;95114.41;5076065;28;20219;-72
2022/06/05 04:09:10;;;;;;;10.60;9.15;;;;;;;19.95;70.62;95112.41;5076932;28;20195;-72
2022/06/05 04:11:38;;;;;;;12.73;11.35;;;;;;;20.01;70.83;95114.75;5059498;28;20194;-72
2022/06/05 04:14:08;;;;;;;13.10;11.80;;;;;;;20.06;71.14;95125.50;5077018;28;20188;-72
2022/06/05 04:16:35;;;;;;;14.35;12.85;;;;;;;20.10;71.16;95129.88;5075969;28;20629;-72
2022/06/05 04:19:03;;;;;;;15.88;14.27;;;;;;;20.14;70.85;95113.81;5076782;28;20193;-72
2022/06/05 04:21:33;;;;;;;13.52;12.27;;;;;;;20.17;71.07;95118.59;5075681;28;20224;-73
2022/06/05 04:24:00;;;;;;;13.80;12.50;;;;;;;20.20;70.91;95111.38;5076521;28;20305;-73
2022/06/05 04:26:29;;;;;;;14.57;13.18;;;;;;;20.22;71.12;95099.75;5076810;28;20247;-72
2022/06/05 04:28:55;;;;;;;15.02;13.45;;;;;;;20.23;71.54;95104.16;5076432;28;20218;-72
2022/06/05 04:31:26;;;;;;;16.15;13.77;;;;;;;20.25;71.30;95102.53;5076470;28;20207;-72
2022/06/05 04:33:55;;;;;;;16.45;13.90;;;;;;;20.27;71.53;95099.31;5076868;28;20193;-72
2022/06/05 04:36:22;;;;;;;13.57;12.32;;;;;;;20.30;71.45;95102.09;5076384;28;20196;-73
2022/06/05 04:38:50;;;;;;;12.38;11.13;;;;;;;20.32;71.61;95098.88;5076523;28;20189;-72
2022/06/05 04:41:18;;;;;;;12.93;11.20;;;;;;;20.33;71.04;95095.63;5076438;28;20205;-72
2022/06/05 04:43:45;;;;;;;10.15;9.30;;;;;;;20.37;70.74;95090.81;5075987;28;20550;-72
2022/06/05 04:46:12;;;;;;;10.38;8.80;;;;;;;20.42;70.72;95087.56;5076259;28;20262;-71
2022/06/05 04:48:40;;;;;;;9.25;8.43;;;;;;;20.48;70.53;95087.09;5075377;28;20196;-72
2022/06/05 04:51:08;;;;;;;9.77;8.77;;;;;;;20.51;70.01;95083.47;5076149;28;20239;-71
2022/06/05 04:53:36;;;;;;;11.23;7.97;;;;;;;20.55;69.92;95085.06;5075935;28;20207;-71
2022/06/05 04:56:03;;;;;;;9.40;8.48;;;;;;;20.60;69.64;95084.59;5075230;28;20197;-72
2022/06/05 04:58:30;;;;;;;9.43;8.52;;;;;;;20.64;69.95;95090.16;5075668;28;20524;-71
2022/06/05 05:00:57;;;;;;;9.45;8.48;;;;;;;20.67;70.10;95092.91;5075674;28;20660;-72
2022/06/05 05:03:23;;;;;;;11.57;9.63;;;;;;;20.72;70.13;95094.44;5075836;28;20237;-71
2022/06/05 05:05:52;;;;;;;9.93;8.93;;;;;;;20.77;70.30;95096.00;5075105;28;20197;-74
2022/06/05 05:08:18;;;;;;;9.43;8.40;;;;;;;20.80;70.24;95101.56;5075847;28;20189;-74
2022/06/05 05:10:45;;;;;;;11.27;8.63;;;;;;;20.87;70.18;95103.50;5075045;28;20197;-74
2022/06/05 05:13:12;;;;;;;9.90;8.95;;;;;;;20.92;70.15;95101.03;5075735;28;20255;-74
2022/06/05 05:15:38;;;;;;;10.18;9.15;;;;;;;20.95;70.38;95101.38;5075589;28;20197;-73
2022/06/05 05:18:05;;;;;;;10.45;9.45;;;;;;;20.96;70.50;95108.59;5075605;28;20197;-74
2022/06/05 05:20:32;;;;;;;10.98;9.85;;;;;;;20.97;70.88;95116.59;5075912;28;20578;-72
2022/06/05 05:23:00;;;;;;;11.68;9.45;;;;;;;20.99;70.73;95113.34;5075058;28;20236;-73
2022/06/05 05:25:27;;;;;;;10.80;9.70;;;;;;;21.03;70.52;95116.94;5075319;28;20593;-72
2022/06/05 05:27:53;;;;;;;11.02;9.90;;;;;;;21.09;70.04;95115.22;5074827;28;20246;-75
2022/06/05 05:30:21;;;;;;;11.55;9.95;;;;;;;21.14;70.02;95126.78;5074783;28;20197;-73
2022/06/05 05:32:47;;;;;;;10.65;9.55;;;;;;;21.19;69.81;95121.94;5075428;28;20200;-72
2022/06/05 05:35:14;;;;;;;10.75;9.65;;;;;;;21.24;69.71;95130.69;5074660;28;20253;-73
2022/06/05 05:37:41;;;;;;;12.50;9.32;;;;;;;21.32;69.56;95120.16;5075345;28;20608;-73
2022/06/05 05:42:55;;;;;;;11.68;10.48;;;;;;;21.46;69.53;95128.41;5074265;28;20205;-72
2022/06/05 05:45:22;;;;;;;10.75;9.57;;;;;;;21.48;69.19;95120.34;5075329;28;20193;-73
2022/06/05 05:47:49;;;;;;;11.68;10.27;;;;;;;21.54;69.20;95117.88;5075345;28;20281;-73
2022/06/05 05:50:16;;;;;;;11.48;10.30;;;;;;;21.55;69.46;95120.25;5074359;28;20207;-72
2022/06/05 05:52:43;;;;;;;11.65;10.30;;;;;;;21.57;69.74;95117.03;5074415;28;20193;-73
2022/06/05 05:55:13;;;;;;;11.50;10.27;;;;;;;21.64;69.41;95114.09;5057958;28;20201;-72
2022/06/05 05:57:40;;;;;;;13.93;10.63;;;;;;;21.71;69.07;95114.00;5074325;28;20193;-72
2022/06/05 06:00:10;;;;;;;13.10;10.40;;;;;;;21.76;69.08;95119.13;5074842;28;20182;-72
2022/06/05 06:02:37;;;;;;;12.68;10.00;;;;;;;21.81;68.81;95123.47;5074491;28;20225;-73
2022/06/05 06:05:05;;;;;;;13.13;11.27;;;;;;;21.84;69.03;95120.63;5074920;28;20186;-73
2022/06/05 06:07:31;;;;;;;12.35;10.18;;;;;;;21.87;69.05;95125.38;5074168;28;20203;-73
2022/06/05 06:09:58;;;;;;;12.13;10.15;;;;;;;21.91;68.92;95130.16;5073849;28;20254;-73
2022/06/05 06:12:27;;;;;;;13.55;11.10;;;;;;;21.98;68.67;95128.03;5074193;28;20189;-73
2022/06/05 06:14:54;;;;;;;11.13;10.00;;;;;;;22.04;68.29;95136.75;5075004;28;20189;-72
2022/06/05 06:17:21;;;;;;;14.60;11.30;;;;;;;22.10;68.17;95132.25;5076195;28;20197;-73
2022/06/05 06:19:48;;;;;;;11.85;10.68;;;;;;;22.14;68.13;95137.78;5079266;28;20186;-73
2022/06/05 06:22:15;;;;;;;11.35;10.10;;;;;;;22.17;67.70;95131.38;5077839;28;20213;-73
2022/06/05 06:24:41;;;;;;;12.63;11.43;;;;;;;22.20;68.02;95125.69;5078872;28;20177;-73
2022/06/05 06:27:08;;;;;;;12.95;11.23;;;;;;;22.22;68.27;95130.88;5077689;28;20235;-72
2022/06/05 06:29:37;;;;;;;12.05;10.70;;;;;;;22.24;68.00;95131.25;5077918;28;20201;-72
2022/06/05 06:32:04;;;;;;;11.52;10.32;;;;;;;22.25;67.95;95124.41;5078756;28;20539;-72
2022/06/05 06:34:31;;;;;;;12.27;10.65;;;;;;;22.27;67.69;95117.13;5078858;28;20185;-72
2022/06/05 06:36:58;;;;;;;11.40;10.30;;;;;;;22.34;67.89;95128.25;5078515;28;20185;-72
2022/06/05 06:39:26;;;;;;;13.20;10.45;;;;;;;22.41;67.54;95120.94;5078344;28;20181;-72
2022/06/05 06:41:53;;;;;;;11.75;10.27;;;;;;;22.40;67.74;95125.72;5077237;28;20229;-72
2022/06/05 06:44:20;;;;;;;12.32;10.95;;;;;;;22.41;67.60;95121.72;5078559;28;20235;-73
2022/06/05 06:46:48;;;;;;;11.82;10.63;;;;;;;22.41;67.60;95120.94;5079105;28;20185;-73
2022/06/05 06:49:16;;;;;;;11.63;10.43;;;;;;;22.41;67.65;95127.34;5077476;28;20193;-73
2022/06/05 06:51:42;;;;;;;11.63;10.52;;;;;;;22.43;67.72;95126.91;5077477;28;20598;-73
2022/06/05 06:54:09;;;;;;;11.02;9.90;;;;;;;22.45;68.08;95122.44;5078445;28;20188;-73
2022/06/05 06:56:36;;;;;;;10.77;9.77;;;;;;;22.50;67.59;95118.34;5078396;28;20182;-73
2022/06/05 06:59:04;;;;;;;10.23;9.38;;;;;;;22.53;67.59;95115.47;5077352;28;20212;-73
2022/06/05 07:01:31;;;;;;;11.25;10.13;;;;;;;22.56;67.47;95117.41;5077328;28;20228;-73
2022/06/05 07:03:59;;;;;;;10.68;9.63;;;;;;;22.58;67.64;95106.53;5078290;28;20563;-73
2022/06/05 07:06:25;;;;;;;10.10;9.20;;;;;;;22.62;67.52;95108.47;5076930;28;20196;-72
2022/06/05 07:08:52;;;;;;;9.80;8.90;;;;;;;22.60;67.37;95108.91;5077378;28;20602;-72
2022/06/05 07:11:20;;;;;;;9.85;8.93;;;;;;;22.61;67.30;95112.53;5078037;28;20268;-72
2022/06/05 07:13:46;;;;;;;12.50;9.35;;;;;;;22.66;67.59;95103.56;5077338;28;20253;-73
2022/06/05 07:16:13;;;;;;;10.93;9.80;;;;;;;22.74;67.88;95100.22;5078085;28;20197;-73
2022/06/05 07:18:41;;;;;;;9.38;8.57;;;;;;;22.82;67.07;95110.09;5077943;28;20201;-73
2022/06/05 07:21:10;;;;;;;10.00;9.10;;;;;;;22.86;67.53;95109.22;5077318;28;20201;-73
2022/06/05 07:23:37;;;;;;;10.43;9.52;;;;;;;22.88;66.84;95115.22;5076690;28;20660;-74
2022/06/05 07:26:04;;;;;;;9.88;8.93;;;;;;;22.92;66.44;95105.53;5078174;28;20199;-70
2022/06/05 07:28:31;;;;;;;9.80;8.82;;;;;;;22.89;66.84;95105.56;5077616;28;20560;-71
2022/06/05 07:31:00;;;;;;;11.82;8.73;;;;;;;22.92;66.99;95101.91;5077722;28;20197;-74
2022/06/05 07:33:28;;;;;;;9.70;8.73;;;;;;;22.93;66.34;95095.84;5076351;28;20280;-74
2022/06/05 07:35:58;;;;;;;10.27;9.27;;;;;;;22.99;66.99;95108.19;5078040;28;20601;-75
2022/06/05 07:38:27;;;;;;;8.98;8.10;;;;;;;23.01;66.51;95104.94;5077518;28;20177;-73
2022/06/05 07:40:53;;;;;;;9.05;8.23;;;;;;;22.98;66.61;95100.97;5077673;28;20192;-74
2022/06/05 07:43:21;;;;;;;9.15;8.43;;;;;;;23.00;66.80;95094.91;5076092;28;20221;-74
2022/06/05 07:45:48;;;;;;;9.02;7.75;;;;;;;23.04;65.84;95087.97;5077375;28;20189;-74
2022/06/05 07:48:16;;;;;;;9.73;8.82;;;;;;;23.09;65.37;95091.50;5077137;28;20685;-74
2022/06/05 07:56:09;;;;;;;9.43;8.52;;;;;;;23.04;65.18;95084.38;5076389;28;20201;-74
2022/06/05 07:58:36;;;;;;;8.40;7.60;;;;;;;23.05;64.67;95083.94;5076284;28;20190;-74
2022/06/05 08:01:03;;;;;;;8.35;7.60;;;;;;;23.08;64.31;95082.28;5076323;28;20296;-74
2022/06/05 08:03:29;;;;;;;8.75;7.88;;;;;;;23.13;64.03;95081.78;5076978;28;20209;-73
2022/06/05 08:05:56;;;;;;;8.82;8.13;;;;;;;23.13;63.50;95078.16;5059512;28;20238;-73
2022/06/05 08:08:23;;;;;;;9.48;8.68;;;;;;;23.12;63.80;95085.03;5076715;28;20597;-74
2022/06/05 08:10:49;;;;;;;8.80;7.97;;;;;;;23.14;63.38;95088.22;5075851;28;20266;-74
2022/06/05 08:13:18;;;;;;;8.73;7.93;;;;;;;23.19;63.97;95091.28;5075956;28;20201;-74
2022/06/05 08:15:45;;;;;;;9.75;7.57;;;;;;;23.22;63.74;95086.81;5075737;28;20205;-74
2022/06/05 08:18:12;;;;;;;8.55;7.80;;;;;;;23.28;64.18;95083.06;5077064;28;20283;-74
2022/06/05 08:20:39;;;;;;;9.88;7.70;;;;;;;23.31;62.79;95081.38;5075586;28;20238;-74
2022/06/05 08:23:06;;;;;;;9.38;7.50;;;;;;;23.35;61.11;95082.13;5077012;28;20241;-74
2022/06/05 08:25:33;;;;;;;9.10;8.10;;;;;;;23.37;62.00;95082.47;5076482;28;20196;-74
2022/06/05 08:28:00;;;;;;;7.80;7.10;;;;;;;23.42;62.89;95079.16;5076643;28;20185;-74
2022/06/05 08:30:28;;;;;;;7.97;7.13;;;;;;;23.46;61.47;95077.03;5075304;28;20208;-74
2022/06/05 08:32:55;;;;;;;7.95;7.03;;;;;;;23.49;61.58;95075.34;5075802;28;20204;-74
2022/06/05 08:35:21;;;;;;;6.97;6.35;;;;;;;23.55;60.89;95082.06;5076409;28;20250;-74
2022/06/05 08:43:29;;;;;;;7.03;6.38;;;;;;;23.69;59.33;95072.53;5075873;28;20233;-74
2022/06/05 08:46:04;;;;;;;7.25;6.55;;;;;;;23.67;59.72;95066.53;5075215;28;20374;-74
2022/06/05 08:48:34;;;;;;;5.88;5.28;;;;;;;23.80;56.66;95073.06;5075641;28;20208;-73
2022/06/05 08:51:11;;;;;;;6.78;6.07;;;;;;;23.83;54.54;95071.41;5076191;28;20192;-74
2022/06/05 08:53:45;;;;;;;5.97;5.38;;;;;;;23.82;54.91;95064.97;5075839;28;20246;-73
2022/06/05 08:56:15;;;;;;;6.30;5.68;;;;;;;23.87;56.71;95066.47;5075734;28;20204;-73
2022/06/05 08:58:46;;;;;;;6.57;5.97;;;;;;;23.94;57.07;95069.91;5075406;28;20584;-73
2022/06/05 09:01:19;;;;;;;6.53;5.45;;;;;;;24.08;56.13;95070.78;5074807;28;20201;-73
2022/06/05 09:03:48;;;;;;;5.60;5.18;;;;;;;24.16;56.56;95067.34;5075798;28;20213;-73
2022/06/05 09:06:18;;;;;;;5.32;4.82;;;;;;;24.27;52.98;95065.03;5075403;28;20192;-74
2022/06/05 09:08:46;;;;;;;7.72;5.55;;;;;;;24.33;53.86;95058.84;5075812;28;20276;-74
2022/06/05 09:11:15;;;;;;;6.13;5.25;;;;;;;24.38;54.99;95059.13;5075411;28;20182;-74
2022/06/05 09:13:45;;;;;;;6.00;5.32;;;;;;;24.49;55.01;95054.00;5075689;28;20190;-74
2022/06/05 09:16:16;;;;;;;5.40;4.65;;;;;;;24.59;52.10;95057.00;5075378;28;20196;-74
2022/06/05 09:18:46;;;;;;;5.22;4.72;;;;;;;24.62;53.26;95056.09;5074718;28;20197;-74
2022/06/05 09:21:19;;;;;;;6.95;4.88;;;;;;;24.75;49.82;95048.47;5074805;28;20254;-74
2022/06/05 09:23:53;;;;;;;5.40;4.40;;;;;;;24.81;51.71;95045.91;5075707;28;20233;-74
2022/06/05 09:26:24;;;;;;;8.35;5.35;;;;;;;24.93;51.80;95053.59;5074847;28;20197;-74
2022/06/05 09:29:15;;;;;;;5.47;4.97;;;;;;;25.01;48.88;95048.53;5075271;28;20235;-74
2022/06/05 09:31:57;;;;;;;4.53;4.13;;;;;;;25.09;47.13;95047.91;5075049;28;20209;-74
2022/06/05 09:34:30;;;;;;;4.57;3.90;;;;;;;25.16;47.21;95042.09;5075357;28;20585;-73
2022/06/05 09:37:00;;;;;;;4.68;4.22;;;;;;;25.16;48.02;95047.72;5074818;28;20197;-76
2022/06/05 09:39:30;;;;;;;5.05;4.35;;;;;;;25.26;49.81;95047.84;5075347;28;20204;-73
2022/06/05 09:42:29;;;;;;;5.00;4.45;;;;;;;25.42;49.07;95040.06;5075236;28;20270;-74
2022/06/05 09:45:05;;;;;;;4.80;4.30;;;;;;;25.48;48.05;95039.50;5056263;28;20216;-73
2022/06/05 09:47:40;;;;;;;4.95;4.55;;;;;;;25.52;49.64;95045.81;5074333;28;20239;-74
2022/06/05 09:50:20;;;;;;;4.28;3.97;;;;;;;25.53;47.83;95036.91;5075263;28;20263;-74
2022/06/05 09:52:48;;;;;;;4.60;4.20;;;;;;;25.55;49.78;95034.41;5074470;28;20181;-74
2022/06/05 09:55:18;;;;;;;5.22;4.72;;;;;;;25.59;50.26;95046.38;5075219;28;20223;-74
2022/06/05 10:00:46;;;;;;;5.40;4.28;;;;;;;25.89;49.53;95030.94;5073995;28;20193;-74
2022/06/05 10:03:17;;;;;;;4.70;4.30;;;;;;;25.89;47.35;95028.13;5074176;28;20213;-74
2022/06/05 10:05:45;;;;;;;5.05;4.63;;;;;;;25.96;49.22;95027.06;5074646;28;20254;-73
2022/06/05 10:08:16;;;;;;;5.30;4.80;;;;;;;26.11;46.47;95035.88;5074860;28;20208;-74
2022/06/05 10:10:45;;;;;;;4.88;4.30;;;;;;;26.16;48.27;95027.59;5074572;28;20601;-74
2022/06/05 10:13:19;;;;;;;4.88;4.47;;;;;;;26.28;47.08;95020.34;5074883;28;20197;-74
2022/06/05 10:15:52;;;;;;;6.18;5.68;;;;;;;26.35;46.45;95025.75;5074926;28;20212;-74
2022/06/05 10:18:23;;;;;;;5.40;4.80;;;;;;;26.45;46.69;95020.19;5075119;28;20189;-74
2022/06/05 10:20:56;;;;;;;5.57;5.07;;;;;;;26.52;44.30;95015.09;5075154;28;20189;-74
2022/06/05 10:23:35;;;;;;;5.40;4.90;;;;;;;26.55;47.07;95008.53;5074438;28;20652;-74
2022/06/05 10:26:13;;;;;;;4.35;3.95;;;;;;;26.75;44.13;95011.00;5074933;28;20216;-74
2022/06/05 10:28:46;;;;;;;5.05;4.55;;;;;;;26.79;43.49;95006.00;5075724;28;20209;-74
2022/06/05 10:31:15;;;;;;;4.95;4.47;;;;;;;26.84;43.25;95005.44;5074672;28;20559;-74
2022/06/05 10:33:52;;;;;;;5.05;4.60;;;;;;;26.85;46.48;95004.19;5073968;28;20197;-74
2022/06/05 10:36:22;;;;;;;4.97;4.50;;;;;;;26.87;44.37;94993.19;5074763;28;20261;-74
2022/06/05 10:38:55;;;;;;;5.15;4.72;;;;;;;26.96;44.82;94997.34;5073906;28;20293;-74
2022/06/05 10:41:26;;;;;;;7.22;5.53;;;;;;;26.95;46.15;94988.06;5073816;28;20200;-74
2022/06/05 10:44:14;;;;;;;5.20;4.70;;;;;;;27.00;46.45;94983.84;5075002;28;20205;-74
2022/06/05 10:46:47;;;;;;;6.78;5.25;;;;;;;27.06;45.17;94982.00;5073917;28;20300;-74
2022/06/05 10:49:19;;;;;;;8.07;5.18;;;;;;;27.19;46.45;94981.91;5074176;28;20197;-74
2022/06/05 10:51:51;;;;;;;4.97;4.57;;;;;;;27.40;44.52;94986.75;5074560;28;20246;-74
2022/06/05 10:54:30;;;;;;;5.80;5.18;;;;;;;27.35;45.38;94982.47;5074222;28;20197;-75
2022/06/05 10:57:00;;;;;;;5.82;4.65;;;;;;;27.38;46.73;94982.78;5074776;28;20189;-74
2022/06/05 10:59:37;;;;;;;6.82;4.90;;;;;;;27.46;46.82;94975.63;5074276;28;20181;-74
2022/06/05 11:02:22;;;;;;;6.28;5.20;;;;;;;27.46;46.12;94972.78;5073709;28;20242;-73
2022/06/05 11:05:06;;;;;;;5.45;4.95;;;;;;;27.46;45.51;94972.78;5077019;28;20207;-74
2022/06/05 11:07:47;;;;;;;4.55;4.15;;;;;;;27.37;45.61;94976.34;5077263;28;20255;-74
2022/06/05 11:10:18;;;;;;;6.40;4.57;;;;;;;27.51;43.77;94969.31;5078160;28;20193;-73
2022/06/05 11:15:40;;;;;;;4.60;4.20;;;;;;;27.72;43.43;94968.47;5077661;28;20212;-74
2022/06/05 11:18:12;;;;;;;4.45;4.07;;;;;;;27.80;42.36;94971.81;5077061;28;20239;-74
2022/06/05 11:20:44;;;;;;;4.78;4.38;;;;;;;27.81;44.46;94959.22;5078031;28;20193;-75
2022/06/05 11:23:14;;;;;;;5.35;4.85;;;;;;;27.83;43.13;94968.03;5077856;28;20225;-74
2022/06/05 11:25:52;;;;;;;5.30;4.80;;;;;;;28.00;43.68;94948.72;5076940;28;20606;-74
2022/06/05 11:28:43;;;;;;;6.88;5.10;;;;;;;28.00;43.57;94952.34;5077832;28;20186;-73
2022/06/05 11:31:15;;;;;;;4.95;4.50;;;;;;;28.06;42.54;94947.59;5076938;28;20189;-74
2022/06/05 11:33:48;;;;;;;5.25;4.00;;;;;;;28.10;42.32;94950.28;5076782;28;20227;-73
2022/06/05 11:36:21;;;;;;;5.70;4.57;;;;;;;28.07;41.46;94960.53;5077477;28;20193;-74
2022/06/05 11:38:59;;;;;;;4.80;4.20;;;;;;;28.06;42.19;94956.09;5059816;28;20514;-74
2022/06/05 11:41:30;;;;;;;4.63;4.22;;;;;;;28.12;43.30;94953.44;5077385;28;20211;-73
2022/06/05 11:44:15;;;;;;;5.18;4.78;;;;;;;28.22;43.32;94946.53;5078060;28;20201;-73
2022/06/05 11:46:51;;;;;;;5.07;4.68;;;;;;;28.28;42.63;94952.34;5076805;28;20250;-74
2022/06/05 11:49:20;;;;;;;4.63;4.15;;;;;;;28.34;40.67;94938.34;5076549;28;20235;-74
2022/06/05 11:52:03;;;;;;;4.63;4.32;;;;;;;28.47;40.90;94942.63;5077547;28;20193;-74
2022/06/05 11:54:38;;;;;;;5.30;4.47;;;;;;;28.50;42.27;94941.66;5077443;28;20189;-74
2022/06/05 11:57:15;;;;;;;4.50;4.10;;;;;;;28.59;42.26;94943.72;5077246;28;20246;-74
2022/06/05 11:59:48;;;;;;;4.30;4.00;;;;;;;28.65;42.11;94941.84;5076325;28;20212;-75
2022/06/05 12:02:55;;;;;;;5.90;4.03;;;;;;;28.76;38.81;94952.69;5077207;28;20232;-74
2022/06/05 12:05:28;;;;;;;5.05;3.85;;;;;;;28.73;40.27;94945.13;5072220;28;20224;-74